Time,TemperatureF,DewpointF,PressureIn,WindDirection,WindDirectionDegrees,WindSpeedMPH,WindSpeedGustMPH,Humidity,HourlyPrecipIn,Conditions,Clouds,dailyrainin,SoftwareType,DateUTC
2013-09-29 00:15:00,45.0,43.9,29.76,SW,231,5.4,10.1,96,0.33,,SCT,0.00,VWS V14.01,2013-09-29 07:15:00,
2013-09-29 00:30:00,43.7,40.7,29.76,SW,236,4.5,13.2,89,0.33,,SCT,0.07,VWS V14.01,2013-09-29 07:30:00,
2013-09-29 00:45:00,43.2,41.3,29.79,NW,316,0.0,8.3,93,0.20,,SCT,0.07,VWS V14.01,2013-09-29 07:45:00,
2013-09-29 01:00:00,42.6,40.7,29.79,NW,315,0.0,8.1,93,0.13,,SCT,0.07,VWS V14.01,2013-09-29 08:00:00,
2013-09-29 01:15:00,41.9,40.0,29.79,NW,318,6.3,6.7,93,0.07,,SCT,0.07,VWS V14.01,2013-09-29 08:15:00,
2013-09-29 01:30:00,41.2,39.0,29.82,WSW,258,5.4,6.7,92,0.13,,SCT,0.13,VWS V14.01,2013-09-29 08:30:00,
2013-09-29 01:45:00,40.8,38.7,29.79,ESE,118,3.1,5.8,92,0.07,,SCT,0.13,VWS V14.01,2013-09-29 08:45:00,
2013-09-29 02:01:00,41.2,39.6,29.82,ESE,108,3.1,4.0,94,0.07,,SCT,0.13,VWS V14.01,2013-09-29 09:01:00,
2013-09-29 02:15:00,41.2,39.9,29.82,WSW,249,3.1,7.2,95,0.07,,SCT,0.13,VWS V14.01,2013-09-29 09:15:00,
2013-09-29 02:30:00,41.2,39.9,29.82,South,170,0.0,5.8,95,0.07,,SCT,0.13,VWS V14.01,2013-09-29 09:30:00,
2013-09-29 02:45:00,40.6,38.8,29.79,SSE,157,3.1,5.4,93,0.00,,SCT,0.13,VWS V14.01,2013-09-29 09:45:00,
2013-09-29 03:15:00,40.1,38.5,29.82,SE,146,4.0,8.7,94,0.00,,SCT,0.13,VWS V14.01,2013-09-29 10:15:00,
2013-09-29 03:30:00,39.7,38.7,29.82,SE,129,9.2,10.5,96,0.00,,SCT,0.13,VWS V14.01,2013-09-29 10:30:00,
2013-09-29 03:47:00,39.6,38.8,29.82,East,83,3.1,9.2,97,0.00,,SCT,0.13,VWS V14.01,2013-09-29 10:47:00,
2013-09-29 18:03:00,42.4,41.9,29.70,SE,124,6.3,6.3,98,0.00,,SCT,0.23,VWS V14.01,2013-09-30 01:03:00,
2013-09-29 18:08:00,42.4,41.9,29.70,SE,139,5.4,14.5,98,0.20,,SCT,0.33,VWS V14.01,2013-09-30 01:08:00,
2013-09-29 18:13:00,42.6,42.1,29.70,SE,137,12.3,15.4,98,0.20,,SCT,0.33,VWS V14.01,2013-09-30 01:13:00,
2013-09-29 18:18:00,42.8,42.3,29.70,SSE,157,9.6,12.3,98,0.00,,SCT,0.33,VWS V14.01,2013-09-30 01:18:00,
2013-09-29 18:24:00,42.8,42.3,29.70,SSE,151,5.4,12.3,98,0.07,,SCT,0.40,VWS V14.01,2013-09-30 01:24:00,
2013-09-29 18:29:00,43.0,42.5,29.70,SSW,213,5.4,12.8,98,0.07,,SCT,0.40,VWS V14.01,2013-09-30 01:29:00,
2013-09-29 18:34:00,43.0,42.5,29.70,SSE,164,7.6,15.0,98,0.07,,SCT,0.40,VWS V14.01,2013-09-30 01:34:00,
2013-09-29 18:39:00,43.2,42.6,29.70,SSW,195,5.8,15.0,98,0.07,,SCT,0.40,VWS V14.01,2013-09-30 01:39:00,
2013-09-29 18:44:00,43.3,42.8,29.70,SE,142,6.7,15.0,98,0.07,,SCT,0.40,VWS V14.01,2013-09-30 01:44:00,
2013-09-29 18:49:00,43.3,42.8,29.70,SE,143,8.7,14.5,98,0.07,,SCT,0.40,VWS V14.01,2013-09-30 01:49:00,
2013-09-29 18:54:00,43.5,43.0,29.70,SSW,201,5.8,14.5,98,0.07,,SCT,0.40,VWS V14.01,2013-09-30 01:54:00,
2013-09-29 18:59:00,43.5,43.0,29.70,SSE,150,8.3,14.5,98,0.07,,SCT,0.40,VWS V14.01,2013-09-30 01:59:00,
2013-09-29 19:04:00,43.7,43.2,29.70,South,176,8.7,12.8,98,0.07,,SCT,0.40,VWS V14.01,2013-09-30 02:04:00,
2013-09-29 19:09:00,43.9,43.3,29.70,SSW,193,4.9,16.8,98,0.07,,SCT,0.40,VWS V14.01,2013-09-30 02:09:00,
2013-09-29 19:14:00,43.9,43.3,29.70,South,185,10.5,16.8,98,0.07,,SCT,0.40,VWS V14.01,2013-09-30 02:14:00,
2013-09-29 19:20:00,44.1,43.5,29.70,SSW,213,8.3,12.3,98,0.07,,SCT,0.40,VWS V14.01,2013-09-30 02:20:00,
2013-09-29 19:25:00,44.2,43.7,29.70,South,185,6.3,12.3,98,0.07,,SCT,0.40,VWS V14.01,2013-09-30 02:25:00,
2013-09-29 19:30:00,44.2,43.7,29.70,SE,137,8.1,12.3,98,0.07,,SCT,0.40,VWS V14.01,2013-09-30 02:30:00,
2013-09-29 19:35:00,44.4,43.9,29.70,SSW,202,8.1,11.0,98,0.07,,SCT,0.47,VWS V14.01,2013-09-30 02:35:00,
2013-09-29 19:40:00,44.6,44.1,29.70,SSW,207,5.8,11.0,98,0.07,,SCT,0.47,VWS V14.01,2013-09-30 02:40:00,
2013-09-29 19:45:00,44.8,44.2,29.70,SSW,195,7.6,7.6,98,0.07,,SCT,0.47,VWS V14.01,2013-09-30 02:45:00,
2013-09-29 19:50:00,45.0,44.4,29.70,SE,133,5.8,13.6,98,0.07,,SCT,0.47,VWS V14.01,2013-09-30 02:50:00,
2013-09-29 19:55:00,45.1,44.6,29.70,SSE,158,6.3,13.6,98,0.07,,SCT,0.47,VWS V14.01,2013-09-30 02:55:00,
2013-09-29 20:00:00,45.1,44.6,29.70,South,187,8.3,10.1,98,0.07,,SCT,0.47,VWS V14.01,2013-09-30 03:00:00,
2013-09-29 20:05:00,45.3,44.8,29.70,SSE,165,14.5,14.5,98,0.07,,SCT,0.47,VWS V14.01,2013-09-30 03:05:00,
2013-09-29 20:10:00,45.5,45.0,29.70,SSW,207,5.8,14.5,98,0.07,,SCT,0.47,VWS V14.01,2013-09-30 03:10:00,
2013-09-29 20:15:00,45.5,45.0,29.70,South,178,8.3,11.9,98,0.07,,SCT,0.47,VWS V14.01,2013-09-30 03:15:00,
2013-09-29 20:20:00,45.7,45.2,29.70,SW,219,8.1,18.8,98,0.07,,SCT,0.47,VWS V14.01,2013-09-30 03:20:00,
2013-09-29 20:26:00,45.7,45.2,29.70,SE,129,8.1,18.8,98,0.13,,SCT,0.54,VWS V14.01,2013-09-30 03:26:00,
2013-09-29 20:31:00,45.9,45.3,29.70,NNE,16,6.3,10.5,98,0.13,,SCT,0.54,VWS V14.01,2013-09-30 03:31:00,
2013-09-29 20:36:00,45.9,45.3,29.70,SSW,193,8.7,15.0,98,0.13,,SCT,0.54,VWS V14.01,2013-09-30 03:36:00,
2013-09-29 20:41:00,45.9,45.3,29.70,South,191,11.0,16.8,98,0.13,,SCT,0.54,VWS V14.01,2013-09-30 03:41:00,
2013-09-29 20:46:00,45.9,45.3,29.70,SSE,153,6.3,12.8,98,0.07,,SCT,0.54,VWS V14.01,2013-09-30 03:46:00,
2013-09-29 20:51:00,46.0,45.5,29.70,SSE,162,8.7,15.4,98,0.13,,SCT,0.60,VWS V14.01,2013-09-30 03:51:00,
2013-09-29 20:56:00,46.0,45.5,29.70,SSE,167,7.6,17.4,98,0.13,,SCT,0.60,VWS V14.01,2013-09-30 03:56:00,
2013-09-29 21:01:00,46.0,45.5,29.70,SE,136,7.6,10.5,98,0.13,,SCT,0.60,VWS V14.01,2013-09-30 04:01:00,
2013-09-29 21:02:00,46.0,45.5,29.70,SE,143,8.7,12.8,98,0.13,,SCT,0.60,VWS V14.01,2013-09-30 04:02:00,
2013-09-29 21:03:00,46.0,45.5,29.70,SSE,163,12.8,14.1,98,0.13,,SCT,0.60,VWS V14.01,2013-09-30 04:03:00,
2013-09-29 21:08:00,46.2,45.7,29.67,SSE,152,8.7,18.8,98,0.13,,SCT,0.60,VWS V14.01,2013-09-30 04:08:00,
2013-09-29 21:13:00,46.2,45.7,29.67,SSE,159,8.7,18.8,98,0.20,,SCT,0.67,VWS V14.01,2013-09-30 04:13:00,
2013-09-29 21:19:00,46.4,45.9,29.67,SSE,154,15.0,17.0,98,0.20,,SCT,0.67,VWS V14.01,2013-09-30 04:19:00,
2013-09-29 21:24:00,46.6,46.0,29.67,ESE,123,6.3,17.0,98,0.20,,SCT,0.67,VWS V14.01,2013-09-30 04:24:00,
2013-09-29 21:29:00,46.6,46.0,29.67,SSE,161,15.4,19.2,98,0.20,,SCT,0.67,VWS V14.01,2013-09-30 04:29:00,
2013-09-29 21:34:00,46.8,46.2,29.67,ESE,120,19.2,25.1,98,0.20,,SCT,0.74,VWS V14.01,2013-09-30 04:34:00,
2013-09-29 21:39:00,46.8,46.2,29.64,SE,137,17.0,25.1,98,0.20,,SCT,0.74,VWS V14.01,2013-09-30 04:39:00,
2013-09-29 21:44:00,46.9,46.4,29.64,SSE,151,22.4,25.7,98,0.20,,SCT,0.74,VWS V14.01,2013-09-30 04:44:00,
2013-09-29 21:49:00,46.9,46.4,29.64,SE,139,12.8,24.2,98,0.20,,SCT,0.74,VWS V14.01,2013-09-30 04:49:00,
2013-09-29 21:54:00,47.1,46.6,29.64,ESE,113,7.6,26.2,98,0.20,,SCT,0.74,VWS V14.01,2013-09-30 04:54:00,
2013-09-29 21:59:00,47.1,46.6,29.64,SE,146,13.2,26.2,98,0.20,,SCT,0.74,VWS V14.01,2013-09-30 04:59:00,
2013-09-29 22:04:00,47.3,46.8,29.64,SE,144,10.1,25.5,98,0.13,,SCT,0.74,VWS V14.01,2013-09-30 05:04:00,
2013-09-29 22:10:00,47.5,47.0,29.64,SE,132,8.1,25.5,98,0.13,,SCT,0.74,VWS V14.01,2013-09-30 05:10:00,
2013-09-29 22:15:00,47.7,47.1,29.64,SSE,149,12.8,25.5,98,0.20,,SCT,0.80,VWS V14.01,2013-09-30 05:15:00,
2013-09-29 22:20:00,47.7,47.1,29.61,SSW,194,15.4,21.9,98,0.13,,SCT,0.80,VWS V14.01,2013-09-30 05:20:00,
2013-09-29 22:25:00,47.8,47.3,29.61,SE,130,10.5,22.4,98,0.13,,SCT,0.80,VWS V14.01,2013-09-30 05:25:00,
2013-09-29 22:30:00,47.8,47.3,29.61,SSW,196,12.8,15.4,98,0.13,,SCT,0.80,VWS V14.01,2013-09-30 05:30:00,
2013-09-29 22:35:00,48.0,47.5,29.64,ESE,123,5.8,19.7,98,0.13,,SCT,0.80,VWS V14.01,2013-09-30 05:35:00,
2013-09-29 22:40:00,48.0,47.5,29.64,SSE,151,12.3,19.7,98,0.13,,SCT,0.80,VWS V14.01,2013-09-30 05:40:00,
2013-09-29 22:45:00,48.2,47.7,29.64,South,188,15.4,15.4,98,0.13,,SCT,0.87,VWS V14.01,2013-09-30 05:45:00,
2013-09-29 22:50:00,48.2,47.7,29.61,SE,129,8.3,19.2,98,0.13,,SCT,0.87,VWS V14.01,2013-09-30 05:50:00,
2013-09-29 22:55:00,48.2,47.7,29.61,SSE,153,13.2,21.9,98,0.13,,SCT,0.87,VWS V14.01,2013-09-30 05:55:00,
2013-09-29 23:00:00,48.2,47.7,29.61,South,187,7.6,11.0,98,0.13,,SCT,0.87,VWS V14.01,2013-09-30 06:00:00,
2013-09-29 23:05:00,48.2,47.7,29.61,SW,218,8.3,22.4,98,0.13,,SCT,0.87,VWS V14.01,2013-09-30 06:05:00,
2013-09-29 23:11:00,48.2,47.7,29.61,SSW,210,9.2,27.1,98,0.20,,SCT,0.94,VWS V14.01,2013-09-30 06:11:00,
2013-09-29 23:16:00,48.2,47.7,29.61,SE,129,13.2,15.9,98,0.13,,SCT,0.94,VWS V14.01,2013-09-30 06:16:00,
2013-09-29 23:21:00,48.2,47.7,29.61,SSW,206,12.8,24.6,98,0.13,,SCT,0.94,VWS V14.01,2013-09-30 06:21:00,
2013-09-29 23:26:00,48.2,47.7,29.61,SSW,200,12.8,24.6,98,0.13,,SCT,0.94,VWS V14.01,2013-09-30 06:26:00,
2013-09-29 23:31:00,48.4,47.8,29.61,SSE,152,17.4,17.4,98,0.13,,SCT,0.94,VWS V14.01,2013-09-30 06:31:00,
2013-09-29 23:36:00,48.4,47.8,29.64,ESE,113,13.6,18.8,98,0.20,,SCT,1.00,VWS V14.01,2013-09-30 06:36:00,
2013-09-29 23:41:00,48.4,47.8,29.64,SW,219,6.3,18.8,98,0.20,,SCT,1.00,VWS V14.01,2013-09-30 06:41:00,
2013-09-29 23:46:00,48.4,47.8,29.64,SE,139,5.4,8.7,98,0.13,,SCT,1.00,VWS V14.01,2013-09-30 06:46:00,
2013-09-29 23:51:00,48.4,47.8,29.64,SSW,197,5.4,11.4,98,0.27,,SCT,1.14,VWS V14.01,2013-09-30 06:51:00,
2013-09-29 23:56:00,48.2,47.7,29.64,West,264,10.1,11.4,98,0.27,,SCT,1.14,VWS V14.01,2013-09-30 06:56:00,